Terminal Aerodrome Forecast
Issued by NWS Wilmington, OH

Current Version | Previous Version | Graphics & Text | Print | Product List | Glossary On
Versions: 1 2 3 4 5 6 7 8 9 10 11 12 13 14 15 16
000
FTUS41 KILN 242300
TAFDAY
TAF
KDAY 242334Z 2500/2524 27021G31KT P6SM OVC010
     FM250200 26016G28KT P6SM VCSH OVC012
     FM251200 24012G21KT P6SM BKN020=

USA.gov is the U.S. government's official web portal to all federal, state and local government web resources and services.